sensor_id;sensor_type;location;lat;lon;timestamp;P1;durP1;ratioP1;P2;durP2;ratioP2
63965;SDS011;50151;52.030;5.350;2022-10-16T08:56:57;8.10;;;1.67;;
63965;SDS011;50151;52.030;5.350;2022-10-16T08:59:34;9.75;;;1.80;;
63965;SDS011;50151;52.030;5.350;2022-10-16T09:02:03;7.65;;;1.73;;
63965;SDS011;50151;52.030;5.350;2022-10-16T09:04:53;5.60;;;1.85;;
63965;SDS011;50151;52.030;5.350;2022-10-16T09:07:47;6.03;;;1.60;;
63965;SDS011;50151;52.030;5.350;2022-10-16T09:13:27;3.95;;;1.40;;
63965;SDS011;50151;52.030;5.350;2022-10-16T09:21:35;5.00;;;1.77;;
63965;SDS011;50151;52.030;5.350;2022-10-16T09:24:14;5.70;;;1.55;;
63965;SDS011;50151;52.030;5.350;2022-10-16T09:26:45;9.43;;;2.00;;
63965;SDS011;50151;52.030;5.350;2022-10-16T09:29:13;8.75;;;1.73;;
63965;SDS011;50151;52.030;5.350;2022-10-16T09:31:42;6.78;;;1.80;;
63965;SDS011;50151;52.030;5.350;2022-10-16T09:34:13;8.82;;;2.13;;
63965;SDS011;50151;52.030;5.350;2022-10-16T09:36:44;5.03;;;1.60;;
63965;SDS011;50151;52.030;5.350;2022-10-16T09:39:13;5.60;;;1.65;;
63965;SDS011;50151;52.030;5.350;2022-10-16T09:41:41;9.30;;;1.80;;
63965;SDS011;50151;52.030;5.350;2022-10-16T09:44:21;5.30;;;1.55;;
63965;SDS011;50151;52.030;5.350;2022-10-16T09:47:14;10.90;;;1.60;;
63965;SDS011;50151;52.030;5.350;2022-10-16T09:49:50;12.73;;;1.88;;
63965;SDS011;50151;52.030;5.350;2022-10-16T09:52:23;9.27;;;1.77;;
63965;SDS011;50151;52.030;5.350;2022-10-16T09:54:52;10.30;;;1.70;;
63965;SDS011;50151;52.030;5.350;2022-10-16T09:57:26;9.63;;;1.92;;
63965;SDS011;50151;52.030;5.350;2022-10-16T09:59:58;9.57;;;1.70;;
63965;SDS011;50151;52.030;5.350;2022-10-16T10:02:34;5.72;;;1.33;;
63965;SDS011;50151;52.030;5.350;2022-10-16T10:05:02;11.13;;;1.80;;
63965;SDS011;50151;52.030;5.350;2022-10-16T10:07:33;6.18;;;1.63;;
63965;SDS011;50151;52.030;5.350;2022-10-16T10:10:04;16.02;;;1.83;;
63965;SDS011;50151;52.030;5.350;2022-10-16T10:12:32;14.20;;;1.88;;
63965;SDS011;50151;52.030;5.350;2022-10-16T10:15:11;11.25;;;1.90;;
63965;SDS011;50151;52.030;5.350;2022-10-16T10:17:50;11.48;;;2.15;;
63965;SDS011;50151;52.030;5.350;2022-10-16T10:20:29;10.27;;;1.88;;
63965;SDS011;50151;52.030;5.350;2022-10-16T10:23:13;15.27;;;1.88;;
63965;SDS011;50151;52.030;5.350;2022-10-16T10:28:38;14.70;;;2.22;;
63965;SDS011;50151;52.030;5.350;2022-10-16T10:31:30;9.80;;;1.65;;
63965;SDS011;50151;52.030;5.350;2022-10-16T10:34:26;10.52;;;1.83;;
63965;SDS011;50151;52.030;5.350;2022-10-16T10:40:05;7.57;;;1.77;;
63965;SDS011;50151;52.030;5.350;2022-10-16T10:45:48;7.93;;;1.77;;
63965;SDS011;50151;52.030;5.350;2022-10-16T10:48:33;13.60;;;2.22;;
63965;SDS011;50151;52.030;5.350;2022-10-16T10:51:39;9.02;;;1.85;;
63965;SDS011;50151;52.030;5.350;2022-10-16T10:57:20;10.70;;;1.90;;
63965;SDS011;50151;52.030;5.350;2022-10-16T11:02:41;5.68;;;1.27;;
63965;SDS011;50151;52.030;5.350;2022-10-16T11:07:52;11.90;;;1.83;;
63965;SDS011;50151;52.030;5.350;2022-10-16T11:13:59;6.18;;;1.45;;
63965;SDS011;50151;52.030;5.350;2022-10-16T11:16:35;10.80;;;1.80;;
63965;SDS011;50151;52.030;5.350;2022-10-16T11:22:01;11.85;;;1.67;;
63965;SDS011;50151;52.030;5.350;2022-10-16T11:24:46;8.85;;;1.63;;
63965;SDS011;50151;52.030;5.350;2022-10-16T11:27:20;8.25;;;1.83;;
63965;SDS011;50151;52.030;5.350;2022-10-16T11:30:03;10.30;;;1.73;;
63965;SDS011;50151;52.030;5.350;2022-10-16T11:38:12;11.55;;;1.70;;
63965;SDS011;50151;52.030;5.350;2022-10-16T11:40:59;9.75;;;1.92;;
63965;SDS011;50151;52.030;5.350;2022-10-16T11:43:32;6.72;;;1.40;;
63965;SDS011;50151;52.030;5.350;2022-10-16T11:46:08;10.85;;;1.45;;
63965;SDS011;50151;52.030;5.350;2022-10-16T11:48:41;10.73;;;1.65;;
63965;SDS011;50151;52.030;5.350;2022-10-16T11:53:51;10.60;;;1.50;;
63965;SDS011;50151;52.030;5.350;2022-10-16T11:56:20;8.15;;;1.80;;
63965;SDS011;50151;52.030;5.350;2022-10-16T11:58:56;17.38;;;2.03;;
63965;SDS011;50151;52.030;5.350;2022-10-16T12:01:47;11.75;;;2.17;;
63965;SDS011;50151;52.030;5.350;2022-10-16T12:07:04;11.02;;;1.70;;
63965;SDS011;50151;52.030;5.350;2022-10-16T12:09:36;13.63;;;1.33;;
63965;SDS011;50151;52.030;5.350;2022-10-16T12:12:26;11.40;;;1.70;;
63965;SDS011;50151;52.030;5.350;2022-10-16T12:15:25;5.82;;;1.52;;
63965;SDS011;50151;52.030;5.350;2022-10-16T12:18:21;12.38;;;1.50;;
63965;SDS011;50151;52.030;5.350;2022-10-16T12:23:30;9.93;;;1.75;;
63965;SDS011;50151;52.030;5.350;2022-10-16T12:25:59;6.45;;;1.20;;
63965;SDS011;50151;52.030;5.350;2022-10-16T12:28:29;9.73;;;1.48;;
63965;SDS011;50151;52.030;5.350;2022-10-16T12:31:01;14.32;;;1.55;;
63965;SDS011;50151;52.030;5.350;2022-10-16T12:33:35;10.83;;;2.00;;
63965;SDS011;50151;52.030;5.350;2022-10-16T12:36:04;8.27;;;1.75;;
63965;SDS011;50151;52.030;5.350;2022-10-16T12:38:47;12.80;;;1.80;;
63965;SDS011;50151;52.030;5.350;2022-10-16T12:41:26;5.97;;;1.30;;
63965;SDS011;50151;52.030;5.350;2022-10-16T12:44:02;9.85;;;1.70;;
63965;SDS011;50151;52.030;5.350;2022-10-16T12:51:42;9.70;;;1.55;;
63965;SDS011;50151;52.030;5.350;2022-10-16T12:54:19;15.80;;;1.73;;
63965;SDS011;50151;52.030;5.350;2022-10-16T13:02:37;10.73;;;1.63;;
63965;SDS011;50151;52.030;5.350;2022-10-16T13:05:30;9.23;;;1.50;;
63965;SDS011;50151;52.030;5.350;2022-10-16T13:11:12;8.43;;;1.80;;
63965;SDS011;50151;52.030;5.350;2022-10-16T13:13:52;12.43;;;1.80;;
63965;SDS011;50151;52.030;5.350;2022-10-16T13:16:37;13.00;;;1.55;;
63965;SDS011;50151;52.030;5.350;2022-10-16T13:24:58;8.73;;;1.60;;
63965;SDS011;50151;52.030;5.350;2022-10-16T13:30:28;10.52;;;1.40;;
63965;SDS011;50151;52.030;5.350;2022-10-16T13:33:02;11.30;;;1.77;;
63965;SDS011;50151;52.030;5.350;2022-10-16T13:35:45;9.15;;;1.42;;
63965;SDS011;50151;52.030;5.350;2022-10-16T13:38:19;10.20;;;1.65;;
63965;SDS011;50151;52.030;5.350;2022-10-16T13:41:21;13.65;;;1.80;;
63965;SDS011;50151;52.030;5.350;2022-10-16T13:43:47;12.00;;;1.85;;
63965;SDS011;50151;52.030;5.350;2022-10-16T13:46:17;10.10;;;1.98;;
63965;SDS011;50151;52.030;5.350;2022-10-16T13:48:56;8.65;;;1.60;;
63965;SDS011;50151;52.030;5.350;2022-10-16T13:51:27;7.32;;;1.60;;
63965;SDS011;50151;52.030;5.350;2022-10-16T13:53:56;15.38;;;2.20;;
63965;SDS011;50151;52.030;5.350;2022-10-16T13:56:28;14.45;;;2.22;;
63965;SDS011;50151;52.030;5.350;2022-10-16T13:59:00;5.88;;;1.52;;
63965;SDS011;50151;52.030;5.350;2022-10-16T14:01:48;9.77;;;1.95;;
63965;SDS011;50151;52.030;5.350;2022-10-16T14:04:15;11.88;;;1.92;;
63965;SDS011;50151;52.030;5.350;2022-10-16T14:06:43;7.88;;;1.80;;
63965;SDS011;50151;52.030;5.350;2022-10-16T14:09:14;8.05;;;1.40;;
63965;SDS011;50151;52.030;5.350;2022-10-16T14:11:50;11.25;;;1.83;;
63965;SDS011;50151;52.030;5.350;2022-10-16T14:14:35;8.98;;;1.98;;
63965;SDS011;50151;52.030;5.350;2022-10-16T14:17:18;8.60;;;1.80;;
63965;SDS011;50151;52.030;5.350;2022-10-16T14:19:51;12.43;;;1.75;;
63965;SDS011;50151;52.030;5.350;2022-10-16T14:22:36;8.75;;;1.50;;
63965;SDS011;50151;52.030;5.350;2022-10-16T14:27:45;10.48;;;1.92;;
63965;SDS011;50151;52.030;5.350;2022-10-16T14:30:23;11.27;;;1.95;;
63965;SDS011;50151;52.030;5.350;2022-10-16T14:32:57;11.38;;;1.70;;
63965;SDS011;50151;52.030;5.350;2022-10-16T14:35:44;9.15;;;1.63;;
63965;SDS011;50151;52.030;5.350;2022-10-16T14:38:17;8.48;;;1.42;;
63965;SDS011;50151;52.030;5.350;2022-10-16T14:40:48;11.45;;;1.80;;
63965;SDS011;50151;52.030;5.350;2022-10-16T14:43:24;13.18;;;1.90;;
63965;SDS011;50151;52.030;5.350;2022-10-16T14:46:05;4.75;;;1.23;;
63965;SDS011;50151;52.030;5.350;2022-10-16T14:48:40;10.95;;;1.88;;
63965;SDS011;50151;52.030;5.350;2022-10-16T14:51:13;10.85;;;1.60;;
63965;SDS011;50151;52.030;5.350;2022-10-16T14:53:40;10.45;;;1.63;;
63965;SDS011;50151;52.030;5.350;2022-10-16T14:56:08;9.70;;;1.23;;
63965;SDS011;50151;52.030;5.350;2022-10-16T14:58:43;11.18;;;1.75;;
63965;SDS011;50151;52.030;5.350;2022-10-16T15:01:10;13.40;;;1.50;;
63965;SDS011;50151;52.030;5.350;2022-10-16T15:03:38;8.75;;;2.05;;
63965;SDS011;50151;52.030;5.350;2022-10-16T15:06:09;11.45;;;2.10;;
63965;SDS011;50151;52.030;5.350;2022-10-16T15:08:41;14.25;;;2.47;;
63965;SDS011;50151;52.030;5.350;2022-10-16T15:11:12;10.70;;;2.08;;
63965;SDS011;50151;52.030;5.350;2022-10-16T15:13:41;13.30;;;2.60;;
63965;SDS011;50151;52.030;5.350;2022-10-16T15:16:10;8.98;;;1.88;;
63965;SDS011;50151;52.030;5.350;2022-10-16T15:18:38;10.85;;;1.90;;
63965;SDS011;50151;52.030;5.350;2022-10-16T15:21:04;13.07;;;2.00;;
63965;SDS011;50151;52.030;5.350;2022-10-16T15:23:32;7.40;;;1.95;;
63965;SDS011;50151;52.030;5.350;2022-10-16T15:26:00;8.70;;;1.77;;
63965;SDS011;50151;52.030;5.350;2022-10-16T15:28:26;10.48;;;1.50;;
63965;SDS011;50151;52.030;5.350;2022-10-16T15:30:55;13.10;;;2.17;;
63965;SDS011;50151;52.030;5.350;2022-10-16T15:33:24;7.70;;;1.83;;
63965;SDS011;50151;52.030;5.350;2022-10-16T15:35:54;12.43;;;1.95;;
63965;SDS011;50151;52.030;5.350;2022-10-16T15:38:22;9.90;;;1.80;;
63965;SDS011;50151;52.030;5.350;2022-10-16T15:40:49;8.90;;;1.98;;
63965;SDS011;50151;52.030;5.350;2022-10-16T15:43:16;11.88;;;1.65;;
63965;SDS011;50151;52.030;5.350;2022-10-16T15:45:47;17.75;;;2.05;;
63965;SDS011;50151;52.030;5.350;2022-10-16T15:48:27;14.27;;;1.63;;
63965;SDS011;50151;52.030;5.350;2022-10-16T15:50:55;9.60;;;1.95;;
63965;SDS011;50151;52.030;5.350;2022-10-16T15:53:22;12.27;;;2.33;;
63965;SDS011;50151;52.030;5.350;2022-10-16T15:55:48;8.82;;;1.65;;
63965;SDS011;50151;52.030;5.350;2022-10-16T15:58:15;16.05;;;2.03;;
63965;SDS011;50151;52.030;5.350;2022-10-16T16:00:42;11.88;;;1.80;;
63965;SDS011;50151;52.030;5.350;2022-10-16T16:03:09;10.38;;;1.70;;
63965;SDS011;50151;52.030;5.350;2022-10-16T16:05:39;8.48;;;1.42;;
63965;SDS011;50151;52.030;5.350;2022-10-16T16:08:11;10.82;;;1.85;;
63965;SDS011;50151;52.030;5.350;2022-10-16T16:10:38;14.52;;;1.65;;
63965;SDS011;50151;52.030;5.350;2022-10-16T16:13:05;6.80;;;1.83;;
63965;SDS011;50151;52.030;5.350;2022-10-16T16:15:31;20.42;;;2.40;;
63965;SDS011;50151;52.030;5.350;2022-10-16T16:17:58;17.65;;;2.30;;
63965;SDS011;50151;52.030;5.350;2022-10-16T16:20:25;14.88;;;2.88;;
63965;SDS011;50151;52.030;5.350;2022-10-16T16:22:51;17.83;;;3.25;;
63965;SDS011;50151;52.030;5.350;2022-10-16T16:25:18;9.85;;;2.00;;
63965;SDS011;50151;52.030;5.350;2022-10-16T16:27:45;19.33;;;5.63;;
63965;SDS011;50151;52.030;5.350;2022-10-16T16:30:11;10.68;;;2.20;;
63965;SDS011;50151;52.030;5.350;2022-10-16T16:32:44;11.27;;;1.80;;
63965;SDS011;50151;52.030;5.350;2022-10-16T16:35:11;10.52;;;1.83;;
63965;SDS011;50151;52.030;5.350;2022-10-16T16:37:38;12.52;;;2.00;;
63965;SDS011;50151;52.030;5.350;2022-10-16T16:40:05;11.50;;;1.70;;
63965;SDS011;50151;52.030;5.350;2022-10-16T16:42:31;11.40;;;1.80;;
63965;SDS011;50151;52.030;5.350;2022-10-16T16:44:58;9.63;;;2.00;;
63965;SDS011;50151;52.030;5.350;2022-10-16T16:47:25;10.48;;;1.88;;
63965;SDS011;50151;52.030;5.350;2022-10-16T16:49:52;11.68;;;1.88;;
63965;SDS011;50151;52.030;5.350;2022-10-16T16:52:18;15.20;;;1.88;;
63965;SDS011;50151;52.030;5.350;2022-10-16T16:54:45;12.52;;;1.98;;
63965;SDS011;50151;52.030;5.350;2022-10-16T16:57:18;9.57;;;1.88;;
63965;SDS011;50151;52.030;5.350;2022-10-16T16:59:45;9.65;;;1.30;;
63965;SDS011;50151;52.030;5.350;2022-10-16T17:02:12;11.35;;;2.15;;
63965;SDS011;50151;52.030;5.350;2022-10-16T17:04:39;10.13;;;1.73;;
63965;SDS011;50151;52.030;5.350;2022-10-16T17:07:06;12.23;;;2.95;;
63965;SDS011;50151;52.030;5.350;2022-10-16T17:09:32;10.88;;;2.75;;
63965;SDS011;50151;52.030;5.350;2022-10-16T17:11:59;9.77;;;2.85;;
63965;SDS011;50151;52.030;5.350;2022-10-16T17:14:26;10.80;;;2.53;;
63965;SDS011;50151;52.030;5.350;2022-10-16T17:16:52;9.15;;;2.63;;
63965;SDS011;50151;52.030;5.350;2022-10-16T17:19:19;10.13;;;2.58;;
63965;SDS011;50151;52.030;5.350;2022-10-16T17:21:49;12.90;;;2.28;;
63965;SDS011;50151;52.030;5.350;2022-10-16T17:24:17;14.30;;;2.63;;
63965;SDS011;50151;52.030;5.350;2022-10-16T17:26:46;8.98;;;2.20;;
63965;SDS011;50151;52.030;5.350;2022-10-16T17:29:14;11.30;;;2.05;;
63965;SDS011;50151;52.030;5.350;2022-10-16T17:31:43;13.10;;;1.75;;
63965;SDS011;50151;52.030;5.350;2022-10-16T17:34:10;17.20;;;2.08;;
63965;SDS011;50151;52.030;5.350;2022-10-16T17:36:38;7.80;;;1.40;;
63965;SDS011;50151;52.030;5.350;2022-10-16T17:39:10;13.52;;;2.00;;
63965;SDS011;50151;52.030;5.350;2022-10-16T17:41:39;11.75;;;1.67;;
63965;SDS011;50151;52.030;5.350;2022-10-16T17:44:05;9.25;;;2.53;;
63965;SDS011;50151;52.030;5.350;2022-10-16T17:46:32;17.38;;;4.13;;
63965;SDS011;50151;52.030;5.350;2022-10-16T17:49:06;11.27;;;3.83;;
63965;SDS011;50151;52.030;5.350;2022-10-16T17:51:32;14.73;;;4.30;;
63965;SDS011;50151;52.030;5.350;2022-10-16T17:54:00;11.82;;;4.05;;
63965;SDS011;50151;52.030;5.350;2022-10-16T17:56:27;14.90;;;3.22;;
63965;SDS011;50151;52.030;5.350;2022-10-16T17:58:57;12.35;;;2.60;;
63965;SDS011;50151;52.030;5.350;2022-10-16T18:01:28;16.58;;;2.33;;
63965;SDS011;50151;52.030;5.350;2022-10-16T18:03:57;17.27;;;4.30;;
63965;SDS011;50151;52.030;5.350;2022-10-16T18:06:30;19.40;;;3.00;;
63965;SDS011;50151;52.030;5.350;2022-10-16T18:08:57;17.48;;;2.90;;
63965;SDS011;50151;52.030;5.350;2022-10-16T18:11:24;14.93;;;2.80;;
63965;SDS011;50151;52.030;5.350;2022-10-16T18:13:52;12.25;;;1.98;;
63965;SDS011;50151;52.030;5.350;2022-10-16T18:16:21;13.95;;;2.35;;
63965;SDS011;50151;52.030;5.350;2022-10-16T18:18:49;15.80;;;2.38;;
63965;SDS011;50151;52.030;5.350;2022-10-16T18:21:16;13.48;;;2.28;;
63965;SDS011;50151;52.030;5.350;2022-10-16T18:23:45;7.32;;;1.67;;
63965;SDS011;50151;52.030;5.350;2022-10-16T18:26:17;16.52;;;2.30;;
63965;SDS011;50151;52.030;5.350;2022-10-16T18:28:45;12.00;;;2.42;;
63965;SDS011;50151;52.030;5.350;2022-10-16T18:31:14;12.07;;;2.08;;
63965;SDS011;50151;52.030;5.350;2022-10-16T18:33:42;12.73;;;2.83;;
63965;SDS011;50151;52.030;5.350;2022-10-16T18:36:14;15.35;;;2.67;;
63965;SDS011;50151;52.030;5.350;2022-10-16T18:38:43;19.75;;;4.63;;
63965;SDS011;50151;52.030;5.350;2022-10-16T18:41:10;29.17;;;6.53;;
63965;SDS011;50151;52.030;5.350;2022-10-16T18:43:38;21.27;;;4.88;;
63965;SDS011;50151;52.030;5.350;2022-10-16T18:46:06;18.92;;;3.40;;
63965;SDS011;50151;52.030;5.350;2022-10-16T18:48:41;23.10;;;3.03;;
63965;SDS011;50151;52.030;5.350;2022-10-16T18:53:36;10.52;;;2.53;;
63965;SDS011;50151;52.030;5.350;2022-10-16T18:56:04;11.80;;;2.72;;
63965;SDS011;50151;52.030;5.350;2022-10-16T18:58:34;17.88;;;2.97;;
63965;SDS011;50151;52.030;5.350;2022-10-16T19:01:07;23.15;;;7.70;;
63965;SDS011;50151;52.030;5.350;2022-10-16T19:03:41;21.80;;;4.88;;
63965;SDS011;50151;52.030;5.350;2022-10-16T19:06:10;23.52;;;3.67;;
63965;SDS011;50151;52.030;5.350;2022-10-16T19:08:38;17.90;;;3.22;;
63965;SDS011;50151;52.030;5.350;2022-10-16T19:11:06;11.13;;;3.10;;
63965;SDS011;50151;52.030;5.350;2022-10-16T19:13:35;21.58;;;3.42;;
63965;SDS011;50151;52.030;5.350;2022-10-16T19:16:02;18.17;;;3.42;;
63965;SDS011;50151;52.030;5.350;2022-10-16T19:18:47;27.45;;;3.47;;
63965;SDS011;50151;52.030;5.350;2022-10-16T19:21:15;13.25;;;3.40;;
63965;SDS011;50151;52.030;5.350;2022-10-16T19:23:43;12.48;;;3.28;;
63965;SDS011;50151;52.030;5.350;2022-10-16T19:26:14;14.05;;;3.20;;
63965;SDS011;50151;52.030;5.350;2022-10-16T19:28:43;18.42;;;2.97;;
63965;SDS011;50151;52.030;5.350;2022-10-16T19:31:12;11.73;;;3.10;;
63965;SDS011;50151;52.030;5.350;2022-10-16T19:33:41;12.85;;;2.88;;
63965;SDS011;50151;52.030;5.350;2022-10-16T19:36:12;17.52;;;3.38;;
63965;SDS011;50151;52.030;5.350;2022-10-16T19:38:42;16.35;;;3.45;;
63965;SDS011;50151;52.030;5.350;2022-10-16T19:41:11;16.77;;;3.03;;
63965;SDS011;50151;52.030;5.350;2022-10-16T19:43:39;6.90;;;2.65;;
63965;SDS011;50151;52.030;5.350;2022-10-16T19:46:07;19.90;;;3.42;;
63965;SDS011;50151;52.030;5.350;2022-10-16T19:48:36;15.63;;;2.70;;
63965;SDS011;50151;52.030;5.350;2022-10-16T19:51:03;18.25;;;3.08;;
63965;SDS011;50151;52.030;5.350;2022-10-16T19:53:30;13.55;;;3.35;;
63965;SDS011;50151;52.030;5.350;2022-10-16T19:55:58;10.82;;;2.58;;
63965;SDS011;50151;52.030;5.350;2022-10-16T19:58:25;13.77;;;2.88;;
63965;SDS011;50151;52.030;5.350;2022-10-16T20:00:53;10.70;;;3.47;;
63965;SDS011;50151;52.030;5.350;2022-10-16T20:03:20;12.93;;;2.97;;
63965;SDS011;50151;52.030;5.350;2022-10-16T20:05:51;11.05;;;2.85;;
63965;SDS011;50151;52.030;5.350;2022-10-16T20:08:19;14.35;;;3.53;;
63965;SDS011;50151;52.030;5.350;2022-10-16T20:10:49;13.90;;;2.53;;
63965;SDS011;50151;52.030;5.350;2022-10-16T20:13:17;6.32;;;3.08;;
63965;SDS011;50151;52.030;5.350;2022-10-16T20:15:45;12.18;;;2.90;;
63965;SDS011;50151;52.030;5.350;2022-10-16T20:18:13;10.70;;;2.88;;
63965;SDS011;50151;52.030;5.350;2022-10-16T20:20:42;12.18;;;2.95;;
63965;SDS011;50151;52.030;5.350;2022-10-16T20:23:10;11.93;;;2.97;;
63965;SDS011;50151;52.030;5.350;2022-10-16T20:25:37;13.88;;;3.20;;
63965;SDS011;50151;52.030;5.350;2022-10-16T20:28:07;11.98;;;3.40;;
63965;SDS011;50151;52.030;5.350;2022-10-16T20:30:37;13.90;;;3.25;;
63965;SDS011;50151;52.030;5.350;2022-10-16T20:33:05;8.75;;;3.10;;
63965;SDS011;50151;52.030;5.350;2022-10-16T20:35:37;8.20;;;3.08;;
63965;SDS011;50151;52.030;5.350;2022-10-16T20:38:05;9.00;;;3.03;;
63965;SDS011;50151;52.030;5.350;2022-10-16T20:40:33;9.18;;;2.72;;
63965;SDS011;50151;52.030;5.350;2022-10-16T20:43:01;9.75;;;3.13;;
63965;SDS011;50151;52.030;5.350;2022-10-16T20:45:28;8.15;;;2.67;;
63965;SDS011;50151;52.030;5.350;2022-10-16T20:47:55;8.40;;;3.00;;
63965;SDS011;50151;52.030;5.350;2022-10-16T20:50:21;9.32;;;2.65;;
63965;SDS011;50151;52.030;5.350;2022-10-16T20:52:48;7.90;;;3.08;;
63965;SDS011;50151;52.030;5.350;2022-10-16T20:55:15;9.88;;;2.83;;
63965;SDS011;50151;52.030;5.350;2022-10-16T20:57:43;8.88;;;3.17;;
63965;SDS011;50151;52.030;5.350;2022-10-16T21:00:09;8.88;;;2.92;;
63965;SDS011;50151;52.030;5.350;2022-10-16T21:02:37;6.10;;;2.65;;
63965;SDS011;50151;52.030;5.350;2022-10-16T21:05:04;11.60;;;2.97;;
